sensor_id;sensor_type;location;lat;lon;timestamp;pressure;altitude;pressure_sealevel;temperature;humidity
20930;BME280;21895;47.072;15.132;2023-03-21T00:00:34;96896.00;;;5.79;73.96
20930;BME280;21895;47.072;15.132;2023-03-21T00:03:01;96888.00;;;5.94;70.94
20930;BME280;21895;47.072;15.132;2023-03-21T00:05:27;96892.00;;;5.72;69.33
20930;BME280;21895;47.072;15.132;2023-03-21T00:07:54;96895.00;;;5.39;69.12
20930;BME280;21895;47.072;15.132;2023-03-21T00:10:21;96892.00;;;5.29;69.11
20930;BME280;21895;47.072;15.132;2023-03-21T00:13:05;96891.00;;;5.20;70.68
20930;BME280;21895;47.072;15.132;2023-03-21T00:15:32;96890.00;;;5.29;70.87
20930;BME280;21895;47.072;15.132;2023-03-21T00:18:15;96892.00;;;5.18;71.33
20930;BME280;21895;47.072;15.132;2023-03-21T00:20:42;96883.00;;;5.37;73.59
20930;BME280;21895;47.072;15.132;2023-03-21T00:23:12;96891.00;;;5.78;73.82
20930;BME280;21895;47.072;15.132;2023-03-21T00:25:38;96888.00;;;6.07;73.18
20930;BME280;21895;47.072;15.132;2023-03-21T00:28:06;96888.00;;;6.20;72.65
20930;BME280;21895;47.072;15.132;2023-03-21T00:30:34;96881.00;;;6.36;71.98
20930;BME280;21895;47.072;15.132;2023-03-21T00:33:01;96875.00;;;6.49;71.67
20930;BME280;21895;47.072;15.132;2023-03-21T00:35:46;96877.00;;;6.57;71.48
20930;BME280;21895;47.072;15.132;2023-03-21T00:38:28;96882.00;;;6.48;71.47
20930;BME280;21895;47.072;15.132;2023-03-21T00:40:54;96877.00;;;6.67;70.94
20930;BME280;21895;47.072;15.132;2023-03-21T00:43:22;96879.00;;;6.70;70.86
20930;BME280;21895;47.072;15.132;2023-03-21T00:45:57;96877.00;;;6.83;70.34
20930;BME280;21895;47.072;15.132;2023-03-21T00:48:25;96880.00;;;6.73;68.64
20930;BME280;21895;47.072;15.132;2023-03-21T00:50:54;96869.00;;;6.55;69.31
20930;BME280;21895;47.072;15.132;2023-03-21T00:53:22;96872.00;;;6.35;69.55
20930;BME280;21895;47.072;15.132;2023-03-21T00:55:50;96866.00;;;6.27;70.15
20930;BME280;21895;47.072;15.132;2023-03-21T00:58:17;96869.00;;;6.17;70.79
20930;BME280;21895;47.072;15.132;2023-03-21T01:00:44;96865.00;;;6.11;70.84
20930;BME280;21895;47.072;15.132;2023-03-21T01:03:14;96863.00;;;5.99;71.25
20930;BME280;21895;47.072;15.132;2023-03-21T01:05:51;96871.00;;;5.80;72.34
20930;BME280;21895;47.072;15.132;2023-03-21T01:08:39;96873.00;;;5.81;72.71
20930;BME280;21895;47.072;15.132;2023-03-21T01:11:26;96866.00;;;6.10;73.12
20930;BME280;21895;47.072;15.132;2023-03-21T01:13:54;96860.00;;;6.40;72.17
20930;BME280;21895;47.072;15.132;2023-03-21T01:16:41;96863.00;;;6.50;71.62
20930;BME280;21895;47.072;15.132;2023-03-21T01:19:12;96869.00;;;6.65;71.16
20930;BME280;21895;47.072;15.132;2023-03-21T01:21:51;96856.00;;;6.47;71.55
20930;BME280;21895;47.072;15.132;2023-03-21T01:24:17;96869.00;;;6.48;71.54
20930;BME280;21895;47.072;15.132;2023-03-21T01:26:44;96863.00;;;6.45;71.35
20930;BME280;21895;47.072;15.132;2023-03-21T01:29:10;96860.00;;;6.51;70.95
20930;BME280;21895;47.072;15.132;2023-03-21T01:31:37;96860.00;;;6.56;70.46
20930;BME280;21895;47.072;15.132;2023-03-21T01:34:03;96863.00;;;6.21;68.79
20930;BME280;21895;47.072;15.132;2023-03-21T01:36:30;96859.00;;;5.89;68.89
20930;BME280;21895;47.072;15.132;2023-03-21T01:38:57;96859.00;;;5.50;69.67
20930;BME280;21895;47.072;15.132;2023-03-21T01:41:34;96859.00;;;5.36;70.95
20930;BME280;21895;47.072;15.132;2023-03-21T01:44:16;96854.00;;;5.23;71.25
20930;BME280;21895;47.072;15.132;2023-03-21T01:46:49;96849.00;;;5.07;71.17
20930;BME280;21895;47.072;15.132;2023-03-21T01:49:43;96851.00;;;5.01;71.58
20930;BME280;21895;47.072;15.132;2023-03-21T01:52:16;96848.00;;;4.76;71.56
20930;BME280;21895;47.072;15.132;2023-03-21T01:55:05;96844.00;;;4.73;72.14
20930;BME280;21895;47.072;15.132;2023-03-21T01:57:41;96839.00;;;4.66;71.66
20930;BME280;21895;47.072;15.132;2023-03-21T02:00:28;96846.00;;;4.62;72.08
20930;BME280;21895;47.072;15.132;2023-03-21T02:02:54;96837.00;;;4.70;73.20
20930;BME280;21895;47.072;15.132;2023-03-21T02:05:59;96841.00;;;4.71;71.80
20930;BME280;21895;47.072;15.132;2023-03-21T02:08:29;96835.00;;;4.55;71.85
20930;BME280;21895;47.072;15.132;2023-03-21T02:11:07;96821.00;;;4.45;72.18
20930;BME280;21895;47.072;15.132;2023-03-21T02:13:35;96821.00;;;4.37;73.08
20930;BME280;21895;47.072;15.132;2023-03-21T02:16:27;96814.00;;;4.62;74.06
20930;BME280;21895;47.072;15.132;2023-03-21T02:22:05;96817.00;;;4.81;74.71
20930;BME280;21895;47.072;15.132;2023-03-21T02:34:00;96814.00;;;4.26;71.51
20930;BME280;21895;47.072;15.132;2023-03-21T02:37:25;96808.00;;;4.09;73.13
20930;BME280;21895;47.072;15.132;2023-03-21T02:40:34;96812.00;;;4.02;72.23
20930;BME280;21895;47.072;15.132;2023-03-21T02:43:21;96801.00;;;4.09;73.21
20930;BME280;21895;47.072;15.132;2023-03-21T02:46:07;96807.00;;;3.92;72.10
20930;BME280;21895;47.072;15.132;2023-03-21T02:48:53;96799.00;;;3.87;72.81
20930;BME280;21895;47.072;15.132;2023-03-21T02:51:24;96809.00;;;3.87;73.70
20930;BME280;21895;47.072;15.132;2023-03-21T02:54:12;96809.00;;;3.93;72.02
20930;BME280;21895;47.072;15.132;2023-03-21T02:57:03;96802.00;;;3.97;72.76
20930;BME280;21895;47.072;15.132;2023-03-21T02:59:30;96803.00;;;4.13;76.29
20930;BME280;21895;47.072;15.132;2023-03-21T03:02:01;96805.00;;;4.30;77.10
20930;BME280;21895;47.072;15.132;2023-03-21T03:04:28;96811.00;;;4.47;76.96
20930;BME280;21895;47.072;15.132;2023-03-21T03:08:14;96808.00;;;4.60;74.75
20930;BME280;21895;47.072;15.132;2023-03-21T03:11:23;96804.00;;;4.56;72.85
20930;BME280;21895;47.072;15.132;2023-03-21T03:17:26;96811.00;;;4.41;72.93
20930;BME280;21895;47.072;15.132;2023-03-21T03:21:53;96808.00;;;3.75;70.36
20930;BME280;21895;47.072;15.132;2023-03-21T03:24:34;96812.00;;;3.59;73.14
20930;BME280;21895;47.072;15.132;2023-03-21T03:27:27;96813.00;;;3.46;74.59
20930;BME280;21895;47.072;15.132;2023-03-21T03:29:59;96818.00;;;3.39;75.55
20930;BME280;21895;47.072;15.132;2023-03-21T03:33:12;96815.00;;;3.36;74.33
20930;BME280;21895;47.072;15.132;2023-03-21T03:35:44;96820.00;;;3.18;73.71
20930;BME280;21895;47.072;15.132;2023-03-21T03:38:21;96814.00;;;3.29;74.16
20930;BME280;21895;47.072;15.132;2023-03-21T03:40:54;96822.00;;;3.26;72.56
20930;BME280;21895;47.072;15.132;2023-03-21T03:43:54;96816.00;;;3.09;71.76
20930;BME280;21895;47.072;15.132;2023-03-21T03:46:35;96817.00;;;2.86;73.09
20930;BME280;21895;47.072;15.132;2023-03-21T03:49:12;96814.00;;;2.93;75.27
20930;BME280;21895;47.072;15.132;2023-03-21T03:53:21;96824.00;;;3.22;75.88
20930;BME280;21895;47.072;15.132;2023-03-21T03:55:50;96826.00;;;3.32;74.85
20930;BME280;21895;47.072;15.132;2023-03-21T03:58:21;96824.00;;;3.40;74.37
20930;BME280;21895;47.072;15.132;2023-03-21T04:00:55;96824.00;;;3.20;72.14
20930;BME280;21895;47.072;15.132;2023-03-21T04:03:22;96826.00;;;2.98;72.17
20930;BME280;21895;47.072;15.132;2023-03-21T04:05:48;96822.00;;;2.94;73.55
20930;BME280;21895;47.072;15.132;2023-03-21T04:08:16;96819.00;;;2.86;73.69
20930;BME280;21895;47.072;15.132;2023-03-21T04:10:43;96817.00;;;2.90;73.83
20930;BME280;21895;47.072;15.132;2023-03-21T04:13:10;96817.00;;;2.73;73.39
20930;BME280;21895;47.072;15.132;2023-03-21T04:15:36;96820.00;;;2.75;74.24
20930;BME280;21895;47.072;15.132;2023-03-21T04:18:03;96819.00;;;2.84;73.91
20930;BME280;21895;47.072;15.132;2023-03-21T04:20:29;96822.00;;;2.67;72.24
20930;BME280;21895;47.072;15.132;2023-03-21T04:23:04;96822.00;;;2.63;72.65
20930;BME280;21895;47.072;15.132;2023-03-21T04:25:35;96819.00;;;2.51;73.30
20930;BME280;21895;47.072;15.132;2023-03-21T04:28:06;96819.00;;;2.40;73.39
20930;BME280;21895;47.072;15.132;2023-03-21T04:30:32;96824.00;;;2.49;73.87
20930;BME280;21895;47.072;15.132;2023-03-21T04:32:59;96829.00;;;2.53;73.21
20930;BME280;21895;47.072;15.132;2023-03-21T04:35:26;96827.00;;;2.48;72.36
20930;BME280;21895;47.072;15.132;2023-03-21T04:37:54;96829.00;;;2.41;72.80
20930;BME280;21895;47.072;15.132;2023-03-21T04:40:21;96824.00;;;2.38;73.52
20930;BME280;21895;47.072;15.132;2023-03-21T04:42:48;96826.00;;;2.33;73.77
20930;BME280;21895;47.072;15.132;2023-03-21T04:45:16;96826.00;;;2.36;75.05
20930;BME280;21895;47.072;15.132;2023-03-21T04:47:43;96831.00;;;2.46;74.36
20930;BME280;21895;47.072;15.132;2023-03-21T04:50:11;96821.00;;;2.46;74.09
20930;BME280;21895;47.072;15.132;2023-03-21T04:52:38;96823.00;;;2.46;74.97
20930;BME280;21895;47.072;15.132;2023-03-21T04:55:06;96830.00;;;2.50;74.46
20930;BME280;21895;47.072;15.132;2023-03-21T04:57:37;96827.00;;;2.55;72.93
20930;BME280;21895;47.072;15.132;2023-03-21T05:00:07;96827.00;;;2.47;73.12
20930;BME280;21895;47.072;15.132;2023-03-21T05:02:36;96826.00;;;2.48;72.87
20930;BME280;21895;47.072;15.132;2023-03-21T05:05:03;96825.00;;;2.52;73.38
20930;BME280;21895;47.072;15.132;2023-03-21T05:07:30;96829.00;;;2.64;75.23
20930;BME280;21895;47.072;15.132;2023-03-21T05:09:57;96823.00;;;2.74;74.13
20930;BME280;21895;47.072;15.132;2023-03-21T05:12:27;96824.00;;;2.61;74.28
20930;BME280;21895;47.072;15.132;2023-03-21T05:14:53;96834.00;;;2.49;73.85
20930;BME280;21895;47.072;15.132;2023-03-21T05:17:20;96838.00;;;2.42;72.89
20930;BME280;21895;47.072;15.132;2023-03-21T05:19:50;96831.00;;;2.15;72.36
20930;BME280;21895;47.072;15.132;2023-03-21T05:22:18;96838.00;;;1.96;73.29
20930;BME280;21895;47.072;15.132;2023-03-21T05:24:46;96836.00;;;2.03;74.91
20930;BME280;21895;47.072;15.132;2023-03-21T05:27:20;96845.00;;;2.27;74.65
20930;BME280;21895;47.072;15.132;2023-03-21T05:30:15;96830.00;;;2.27;74.99
20930;BME280;21895;47.072;15.132;2023-03-21T05:32:42;96848.00;;;2.43;73.83
20930;BME280;21895;47.072;15.132;2023-03-21T05:35:09;96833.00;;;2.31;73.46
20930;BME280;21895;47.072;15.132;2023-03-21T05:37:36;96843.00;;;2.37;73.65
20930;BME280;21895;47.072;15.132;2023-03-21T05:40:05;96842.00;;;2.31;73.41
20930;BME280;21895;47.072;15.132;2023-03-21T05:42:32;96845.00;;;2.42;74.46
20930;BME280;21895;47.072;15.132;2023-03-21T05:44:58;96847.00;;;2.72;77.35
20930;BME280;21895;47.072;15.132;2023-03-21T05:47:25;96844.00;;;3.33;78.98
20930;BME280;21895;47.072;15.132;2023-03-21T05:49:52;96838.00;;;3.59;78.41
20930;BME280;21895;47.072;15.132;2023-03-21T05:52:18;96844.00;;;3.33;72.21
20930;BME280;21895;47.072;15.132;2023-03-21T05:54:45;96849.00;;;3.10;72.72
20930;BME280;21895;47.072;15.132;2023-03-21T05:57:12;96850.00;;;3.12;73.88
20930;BME280;21895;47.072;15.132;2023-03-21T05:59:38;96847.00;;;3.25;76.05
20930;BME280;21895;47.072;15.132;2023-03-21T06:02:05;96844.00;;;3.44;76.33
20930;BME280;21895;47.072;15.132;2023-03-21T06:04:31;96840.00;;;3.62;75.78
20930;BME280;21895;47.072;15.132;2023-03-21T06:06:58;96841.00;;;3.85;74.67
20930;BME280;21895;47.072;15.132;2023-03-21T06:09:24;96849.00;;;3.89;73.45
20930;BME280;21895;47.072;15.132;2023-03-21T06:11:54;96849.00;;;3.79;72.97
20930;BME280;21895;47.072;15.132;2023-03-21T06:14:23;96842.00;;;3.94;73.16
20930;BME280;21895;47.072;15.132;2023-03-21T06:16:50;96844.00;;;4.03;74.03
20930;BME280;21895;47.072;15.132;2023-03-21T06:19:17;96846.00;;;4.26;74.49
20930;BME280;21895;47.072;15.132;2023-03-21T06:21:44;96846.00;;;4.54;74.27
20930;BME280;21895;47.072;15.132;2023-03-21T06:24:10;96852.00;;;4.76;74.23
20930;BME280;21895;47.072;15.132;2023-03-21T06:26:37;96853.00;;;4.82;74.42
20930;BME280;21895;47.072;15.132;2023-03-21T06:29:03;96852.00;;;4.97;74.67
20930;BME280;21895;47.072;15.132;2023-03-21T06:31:30;96852.00;;;5.22;74.58
20930;BME280;21895;47.072;15.132;2023-03-21T06:33:57;96858.00;;;5.52;74.57
20930;BME280;21895;47.072;15.132;2023-03-21T06:36:23;96845.00;;;5.80;73.63
20930;BME280;21895;47.072;15.132;2023-03-21T06:38:50;96842.00;;;6.05;72.62
20930;BME280;21895;47.072;15.132;2023-03-21T06:41:17;96847.00;;;6.45;71.74
20930;BME280;21895;47.072;15.132;2023-03-21T06:43:43;96853.00;;;6.78;70.91
20930;BME280;21895;47.072;15.132;2023-03-21T06:46:10;96843.00;;;7.28;69.38
20930;BME280;21895;47.072;15.132;2023-03-21T06:48:37;96847.00;;;7.66;67.80
20930;BME280;21895;47.072;15.132;2023-03-21T06:51:11;96848.00;;;7.81;67.52
20930;BME280;21895;47.072;15.132;2023-03-21T06:53:38;96848.00;;;8.03;67.02
20930;BME280;21895;47.072;15.132;2023-03-21T06:56:09;96850.00;;;8.32;65.31
20930;BME280;21895;47.072;15.132;2023-03-21T06:58:36;96859.00;;;8.48;65.08
20930;BME280;21895;47.072;15.132;2023-03-21T07:01:04;96848.00;;;8.72;64.21
20930;BME280;21895;47.072;15.132;2023-03-21T07:03:31;96847.00;;;9.00;64.05
20930;BME280;21895;47.072;15.132;2023-03-21T07:05:58;96848.00;;;9.29;64.00
20930;BME280;21895;47.072;15.132;2023-03-21T07:08:28;96846.00;;;9.55;63.78
20930;BME280;21895;47.072;15.132;2023-03-21T07:10:55;96844.00;;;9.82;63.36
20930;BME280;21895;47.072;15.132;2023-03-21T07:13:25;96836.00;;;10.09;62.48
20930;BME280;21895;47.072;15.132;2023-03-21T07:15:52;96841.00;;;10.30;62.34
20930;BME280;21895;47.072;15.132;2023-03-21T07:18:19;96842.00;;;10.32;60.96
20930;BME280;21895;47.072;15.132;2023-03-21T07:20:47;96835.00;;;10.44;60.66
20930;BME280;21895;47.072;15.132;2023-03-21T07:23:21;96834.00;;;10.66;60.97
20930;BME280;21895;47.072;15.132;2023-03-21T07:25:49;96838.00;;;10.85;60.07
20930;BME280;21895;47.072;15.132;2023-03-21T07:28:17;96841.00;;;11.10;59.62
20930;BME280;21895;47.072;15.132;2023-03-21T07:30:44;96840.00;;;11.40;59.47
20930;BME280;21895;47.072;15.132;2023-03-21T07:33:11;96835.00;;;11.51;59.07
20930;BME280;21895;47.072;15.132;2023-03-21T07:35:38;96832.00;;;11.73;57.98
20930;BME280;21895;47.072;15.132;2023-03-21T07:38:06;96829.00;;;11.97;57.85
20930;BME280;21895;47.072;15.132;2023-03-21T07:40:32;96822.00;;;12.02;57.50
20930;BME280;21895;47.072;15.132;2023-03-21T07:42:59;96829.00;;;12.17;57.00
20930;BME280;21895;47.072;15.132;2023-03-21T07:45:25;96831.00;;;12.18;56.52
20930;BME280;21895;47.072;15.132;2023-03-21T07:47:52;96826.00;;;12.42;56.33
20930;BME280;21895;47.072;15.132;2023-03-21T07:50:20;96826.00;;;12.59;55.68
20930;BME280;21895;47.072;15.132;2023-03-21T07:52:47;96820.00;;;12.83;54.92
20930;BME280;21895;47.072;15.132;2023-03-21T07:55:13;96822.00;;;13.03;54.55
20930;BME280;21895;47.072;15.132;2023-03-21T07:57:42;96815.00;;;13.20;54.15
20930;BME280;21895;47.072;15.132;2023-03-21T08:00:10;96822.00;;;13.33;54.34
20930;BME280;21895;47.072;15.132;2023-03-21T08:02:37;96820.00;;;13.52;53.70
20930;BME280;21895;47.072;15.132;2023-03-21T08:05:05;96813.00;;;13.55;53.55
20930;BME280;21895;47.072;15.132;2023-03-21T08:07:31;96817.00;;;13.74;53.69
20930;BME280;21895;47.072;15.132;2023-03-21T08:09:58;96814.00;;;14.06;51.94
20930;BME280;21895;47.072;15.132;2023-03-21T08:12:25;96811.00;;;14.07;51.80
20930;BME280;21895;47.072;15.132;2023-03-21T08:14:51;96802.00;;;14.36;51.31
20930;BME280;21895;47.072;15.132;2023-03-21T08:17:18;96806.00;;;14.35;50.77
20930;BME280;21895;47.072;15.132;2023-03-21T08:19:44;96804.00;;;14.49;49.86
20930;BME280;21895;47.072;15.132;2023-03-21T08:22:11;96803.00;;;14.66;48.94
20930;BME280;21895;47.072;15.132;2023-03-21T08:24:37;96792.00;;;14.70;49.01
20930;BME280;21895;47.072;15.132;2023-03-21T08:27:04;96793.00;;;14.82;48.92
20930;BME280;21895;47.072;15.132;2023-03-21T08:29:30;96799.00;;;14.98;48.59
20930;BME280;21895;47.072;15.132;2023-03-21T08:31:57;96794.00;;;15.05;49.19
20930;BME280;21895;47.072;15.132;2023-03-21T08:34:24;96794.00;;;15.35;48.01
20930;BME280;21895;47.072;15.132;2023-03-21T08:36:51;96789.00;;;15.52;47.73
20930;BME280;21895;47.072;15.132;2023-03-21T08:39:18;96789.00;;;15.59;47.84
20930;BME280;21895;47.072;15.132;2023-03-21T08:41:46;96788.00;;;15.77;47.18
20930;BME280;21895;47.072;15.132;2023-03-21T08:44:13;96788.00;;;16.03;47.25
20930;BME280;21895;47.072;15.132;2023-03-21T08:46:42;96784.00;;;16.02;45.55
20930;BME280;21895;47.072;15.132;2023-03-21T08:49:09;96775.00;;;15.98;46.46
20930;BME280;21895;47.072;15.132;2023-03-21T08:51:37;96778.00;;;16.32;45.70
20930;BME280;21895;47.072;15.132;2023-03-21T08:54:04;96769.00;;;16.24;45.30
20930;BME280;21895;47.072;15.132;2023-03-21T08:56:30;96771.00;;;16.39;45.54
20930;BME280;21895;47.072;15.132;2023-03-21T08:58:57;96765.00;;;16.87;42.34
20930;BME280;21895;47.072;15.132;2023-03-21T09:01:24;96771.00;;;16.85;42.27
20930;BME280;21895;47.072;15.132;2023-03-21T09:03:51;96770.00;;;17.21;40.14
20930;BME280;21895;47.072;15.132;2023-03-21T09:06:17;96767.00;;;17.49;40.08
20930;BME280;21895;47.072;15.132;2023-03-21T09:08:44;96766.00;;;17.58;38.38
20930;BME280;21895;47.072;15.132;2023-03-21T09:11:11;96763.00;;;17.74;38.76
20930;BME280;21895;47.072;15.132;2023-03-21T09:13:37;96760.00;;;17.92;37.80
20930;BME280;21895;47.072;15.132;2023-03-21T09:16:04;96765.00;;;17.99;37.49
20930;BME280;21895;47.072;15.132;2023-03-21T09:18:31;96759.00;;;17.78;36.08
20930;BME280;21895;47.072;15.132;2023-03-21T09:21:14;96760.00;;;18.04;37.14
20930;BME280;21895;47.072;15.132;2023-03-21T09:23:41;96752.00;;;18.18;35.93
20930;BME280;21895;47.072;15.132;2023-03-21T09:26:10;96750.00;;;18.44;35.22
20930;BME280;21895;47.072;15.132;2023-03-21T09:28:37;96747.00;;;18.70;35.38
20930;BME280;21895;47.072;15.132;2023-03-21T09:31:05;96753.00;;;18.83;34.49
20930;BME280;21895;47.072;15.132;2023-03-21T09:33:33;96751.00;;;18.55;35.15
20930;BME280;21895;47.072;15.132;2023-03-21T09:36:00;96745.00;;;18.55;35.07
20930;BME280;21895;47.072;15.132;2023-03-21T09:38:27;96745.00;;;18.61;34.98
20930;BME280;21895;47.072;15.132;2023-03-21T09:43:02;96750.00;;;18.51;36.84
20930;BME280;21895;47.072;15.132;2023-03-21T09:50:45;96733.00;;;18.21;36.35
20930;BME280;21895;47.072;15.132;2023-03-21T09:53:27;96740.00;;;18.22;35.75
20930;BME280;21895;47.072;15.132;2023-03-21T09:55:56;96733.00;;;18.21;36.29
20930;BME280;21895;47.072;15.132;2023-03-21T09:58:47;96734.00;;;18.42;36.00
20930;BME280;21895;47.072;15.132;2023-03-21T10:01:23;96731.00;;;18.56;35.58
20930;BME280;21895;47.072;15.132;2023-03-21T10:04:05;96731.00;;;18.34;35.48
20930;BME280;21895;47.072;15.132;2023-03-21T10:06:37;96735.00;;;18.14;35.54
20930;BME280;21895;47.072;15.132;2023-03-21T10:09:17;96726.00;;;17.98;35.84
20930;BME280;21895;47.072;15.132;2023-03-21T10:12:03;96726.00;;;17.81;36.04
20930;BME280;21895;47.072;15.132;2023-03-21T10:14:38;96718.00;;;17.95;35.47
20930;BME280;21895;47.072;15.132;2023-03-21T10:18:36;96724.00;;;18.10;35.40
20930;BME280;21895;47.072;15.132;2023-03-21T10:21:05;96714.00;;;18.24;34.42
20930;BME280;21895;47.072;15.132;2023-03-21T10:23:32;96714.00;;;17.97;34.75
20930;BME280;21895;47.072;15.132;2023-03-21T10:26:02;96708.00;;;17.97;35.27
20930;BME280;21895;47.072;15.132;2023-03-21T10:28:38;96715.00;;;18.17;34.91
20930;BME280;21895;47.072;15.132;2023-03-21T10:31:22;96710.00;;;18.46;34.81
20930;BME280;21895;47.072;15.132;2023-03-21T10:33:56;96702.00;;;18.70;34.21
20930;BME280;21895;47.072;15.132;2023-03-21T10:36:30;96702.00;;;19.11;34.87
20930;BME280;21895;47.072;15.132;2023-03-21T10:39:26;96696.00;;;19.36;33.02
20930;BME280;21895;47.072;15.132;2023-03-21T10:41:57;96705.00;;;19.42;32.93
20930;BME280;21895;47.072;15.132;2023-03-21T10:44:30;96703.00;;;18.98;32.61
20930;BME280;21895;47.072;15.132;2023-03-21T10:47:05;96705.00;;;18.69;34.10
20930;BME280;21895;47.072;15.132;2023-03-21T10:49:33;96697.00;;;18.40;34.65
20930;BME280;21895;47.072;15.132;2023-03-21T10:52:21;96690.00;;;18.66;34.60
20930;BME280;21895;47.072;15.132;2023-03-21T10:54:49;96700.00;;;18.77;34.41
20930;BME280;21895;47.072;15.132;2023-03-21T10:57:21;96697.00;;;18.77;34.05
20930;BME280;21895;47.072;15.132;2023-03-21T11:00:24;96693.00;;;18.76;33.89
20930;BME280;21895;47.072;15.132;2023-03-21T11:02:53;96686.00;;;18.72;34.20
20930;BME280;21895;47.072;15.132;2023-03-21T11:05:40;96689.00;;;18.93;34.71
20930;BME280;21895;47.072;15.132;2023-03-21T11:08:26;96686.00;;;18.67;34.58
20930;BME280;21895;47.072;15.132;2023-03-21T11:11:06;96677.00;;;18.56;34.81
20930;BME280;21895;47.072;15.132;2023-03-21T11:13:43;96680.00;;;18.19;35.27
20930;BME280;21895;47.072;15.132;2023-03-21T11:16:30;96680.00;;;17.98;35.96
20930;BME280;21895;47.072;15.132;2023-03-21T11:19:09;96675.00;;;17.91;36.69
20930;BME280;21895;47.072;15.132;2023-03-21T11:21:37;96673.00;;;17.82;37.16
20930;BME280;21895;47.072;15.132;2023-03-21T11:24:10;96662.00;;;17.92;37.27
20930;BME280;21895;47.072;15.132;2023-03-21T11:26:38;96662.00;;;18.21;37.14
20930;BME280;21895;47.072;15.132;2023-03-21T11:29:35;96653.00;;;18.61;35.17
20930;BME280;21895;47.072;15.132;2023-03-21T11:32:25;96653.00;;;18.84;35.32
20930;BME280;21895;47.072;15.132;2023-03-21T11:35:17;96643.00;;;18.74;35.01
20930;BME280;21895;47.072;15.132;2023-03-21T11:37:52;96640.00;;;18.63;35.56
20930;BME280;21895;47.072;15.132;2023-03-21T11:40:31;96642.00;;;18.61;36.06
20930;BME280;21895;47.072;15.132;2023-03-21T11:45:28;96636.00;;;18.27;36.14
20930;BME280;21895;47.072;15.132;2023-03-21T11:47:58;96635.00;;;18.13;36.92
20930;BME280;21895;47.072;15.132;2023-03-21T11:50:36;96635.00;;;18.13;36.96
20930;BME280;21895;47.072;15.132;2023-03-21T11:54:11;96621.00;;;17.95;37.17
20930;BME280;21895;47.072;15.132;2023-03-21T11:56:48;96627.00;;;17.93;37.42
20930;BME280;21895;47.072;15.132;2023-03-21T12:00:21;96617.00;;;17.82;37.89
20930;BME280;21895;47.072;15.132;2023-03-21T12:13:21;96607.00;;;18.13;37.70
20930;BME280;21895;47.072;15.132;2023-03-21T12:21:14;96593.00;;;18.80;36.97
20930;BME280;21895;47.072;15.132;2023-03-21T12:30:32;96598.00;;;19.29;36.26
20930;BME280;21895;47.072;15.132;2023-03-21T12:39:38;96577.00;;;19.12;36.96
20930;BME280;21895;47.072;15.132;2023-03-21T12:43:36;96577.00;;;18.85;36.48
20930;BME280;21895;47.072;15.132;2023-03-21T12:47:41;96577.00;;;18.90;36.42
20930;BME280;21895;47.072;15.132;2023-03-21T12:50:23;96572.00;;;19.14;36.25
20930;BME280;21895;47.072;15.132;2023-03-21T12:53:02;96557.00;;;18.93;36.41
20930;BME280;21895;47.072;15.132;2023-03-21T12:55:33;96561.00;;;19.14;37.02
20930;BME280;21895;47.072;15.132;2023-03-21T12:58:16;96551.00;;;19.27;35.64
20930;BME280;21895;47.072;15.132;2023-03-21T13:00:53;96547.00;;;19.27;35.23
20930;BME280;21895;47.072;15.132;2023-03-21T13:03:32;96553.00;;;19.24;34.46
20930;BME280;21895;47.072;15.132;2023-03-21T13:06:12;96542.00;;;19.14;35.02
20930;BME280;21895;47.072;15.132;2023-03-21T13:09:55;96537.00;;;19.47;35.15
20930;BME280;21895;47.072;15.132;2023-03-21T13:14:00;96541.00;;;19.58;35.13
20930;BME280;21895;47.072;15.132;2023-03-21T13:16:48;96529.00;;;19.50;35.03
20930;BME280;21895;47.072;15.132;2023-03-21T13:20:00;96523.00;;;19.74;35.05
20930;BME280;21895;47.072;15.132;2023-03-21T13:22:32;96527.00;;;19.42;35.79
20930;BME280;21895;47.072;15.132;2023-03-21T13:25:31;96527.00;;;19.25;35.62
20930;BME280;21895;47.072;15.132;2023-03-21T13:28:03;96525.00;;;19.07;35.95
20930;BME280;21895;47.072;15.132;2023-03-21T13:30:31;96511.00;;;18.98;36.39
20930;BME280;21895;47.072;15.132;2023-03-21T13:33:13;96513.00;;;18.85;36.48
20930;BME280;21895;47.072;15.132;2023-03-21T13:35:44;96514.00;;;18.83;37.18
20930;BME280;21895;47.072;15.132;2023-03-21T13:38:27;96508.00;;;19.24;36.50
20930;BME280;21895;47.072;15.132;2023-03-21T13:41:12;96504.00;;;19.35;36.17
20930;BME280;21895;47.072;15.132;2023-03-21T13:44:43;96495.00;;;19.39;37.21
20930;BME280;21895;47.072;15.132;2023-03-21T13:48:00;96501.00;;;19.76;35.41
20930;BME280;21895;47.072;15.132;2023-03-21T13:51:02;96503.00;;;19.96;35.01
20930;BME280;21895;47.072;15.132;2023-03-21T13:53:40;96496.00;;;20.26;34.30
20930;BME280;21895;47.072;15.132;2023-03-21T13:56:22;96486.00;;;20.43;33.90
20930;BME280;21895;47.072;15.132;2023-03-21T13:58:57;96485.00;;;20.46;34.17
20930;BME280;21895;47.072;15.132;2023-03-21T14:01:39;96485.00;;;20.34;33.86
20930;BME280;21895;47.072;15.132;2023-03-21T14:04:20;96490.00;;;20.37;33.57
20930;BME280;21895;47.072;15.132;2023-03-21T14:07:30;96477.00;;;20.55;33.23
20930;BME280;21895;47.072;15.132;2023-03-21T14:10:04;96474.00;;;20.68;32.83
20930;BME280;21895;47.072;15.132;2023-03-21T14:12:41;96478.00;;;20.66;33.00
20930;BME280;21895;47.072;15.132;2023-03-21T14:15:25;96475.00;;;20.29;34.11
20930;BME280;21895;47.072;15.132;2023-03-21T14:17:59;96475.00;;;19.90;34.39
20930;BME280;21895;47.072;15.132;2023-03-21T14:20:42;96466.00;;;19.69;34.85
20930;BME280;21895;47.072;15.132;2023-03-21T14:23:15;96466.00;;;19.86;34.44
20930;BME280;21895;47.072;15.132;2023-03-21T14:25:43;96460.00;;;19.65;35.03
20930;BME280;21895;47.072;15.132;2023-03-21T14:28:25;96468.00;;;19.67;35.65
20930;BME280;21895;47.072;15.132;2023-03-21T14:31:01;96471.00;;;19.45;35.42
20930;BME280;21895;47.072;15.132;2023-03-21T14:33:45;96462.00;;;19.56;35.31
20930;BME280;21895;47.072;15.132;2023-03-21T14:36:25;96464.00;;;19.62;34.76